Timeline UpdatesTrip UpdatesNews PostsPvt PostsTravel TipsAdmin PostsConv PostsFollowed PostsChat RequestsBlog PostsPNR Posts

Disclaimer
Search
 
 
Wed Apr 23, 2014 19:03:48 ISTHomeTrainsΣChainsAtlasPNRForumGalleryNewsFAQTripsMembersLoginFeedback
No Recent News for this Train
Other Trains in the News **new
Latest...
.. .. ..
Fri Aug 02, 2013 (02:01PM)
⇐ Return Journey: Train# 51285

51286/Nagpur-Bhusaval Passenger (UnReserved)

Oct 27 2013 (1:56AM)
Change Departure Station:
Change Arrival Station:
Post a Train Travel TipPost a Train Travel Tip **new
Post a Comment/Question/Picture/VideoPost a Comment/Question/Picture/Video
Pantry/Catering
✕ NO Pantry Car
✕ NO Catering
RSA - Rake Sharing
Rake/Coach Composition
Loco
KYN WCAM 3
News    PNR    Forum    Time-Table    Availability    Fare Chart    Map    Arr/Dep History    Trips    Gallery    ΣChains    X/O    Timeline    
Travel Time: 8h 25m    35 halts    Distance: 316 km    Avg Speed: 37 km/hr
Type: Passenger
Zone: CR/Central
Departs @ 06:30 (Avg 40m late)
Platform# ???
SMTWTFS
Sewagram Junction/SEGM 
Arrives @ 14:55 (Avg 27m late)
Platform# ???
SMTWTFS
Bhusaval Junction/BSL 

35 halts. 35 intermediate Stations between Sewagram Junction and Bhusaval Junction

Hide intermediate Stations  Show Old Time-Table

#CodeStation NameX/OArrivesAvgDepartsAvgHaltPFDay#KmSpeedElevZoneAddress
1NGPNagpur Junction (9)  -04:50+371-76.220314mCRNagpur 440001, Maharashtra
1.1MIBNagpur Moti Bagh (1)  04:52-04:52-  1-75.4 20309mCRNagpur, Maharashtra
2AJNIAjni (3)  04:59+905:00+101m--1-73.256310mCRNagpur 440003, Maharashtra
3KRIKhapri (2)  05:10+1005:11+141m--1-63.956312mCRNagpur, Maharashtra
4GMGGumgaon (2)X  05:18+1405:19+211m--1-57.358302mCRNagpur, Maharashtra
5BTBRButi Bori (4)  05:28+2105:29+291m--1-48.659269mCRButi Bori, Maharashtra
6BOKBorkhedi  05:37+3105:38+331m--1-40.869268mCRWardha, Maharashtra
7SNISindi (2)  05:48+3405:49+391m--1-29.353258mCRWardha, Maharashtra
8TGPTuljapur (2)  05:58+3905:59+411m--1-21.467259mCRTuljapur, Maharashtra
9SLORSeloo RoadX  06:08+4306:09+451m--1-11.334256mCRMSH3, Maharashtra
9.1VADRWarudXO  06:23-06:23-  1-3.5 34261mCRSewagram, Maharashtra
10SEGM»Sewagram Junction (5)»X  06:29+3806:30+401m--10.011264mCRWardha, Maharashtra
11WRWardha JunctionX  06:45+3206:50+315m--12.752289mCRWardha 442001, Maharashtra
12DAEDahegaonX  07:06+2907:07+301m--116.460275mCRMumbai Hwy, Maharashtra
13KAOTKaotha  07:16+3107:17+331m--125.550283mCRPulgaon, Maharashtra
14PLOPulgaon Junction (3)X  07:25+3407:26+351m2132.258273mCRPulgaon, Maharashtra
15TLNTalniX  07:36+3507:37+351m--141.962277mCRPulgaon, Maharashtra
16DMNDhamangaon (2)X  07:47+3607:48+371m--152.261300mCRDhamangaon, Maharashtra
17DIPDiporeX  07:58+3607:59+371m--162.455322mCRState Highway 243, Maharashtra
18CNDChandur (2)X  08:06+3608:07+371m--168.856331mCRAmravati Distt, Maharashtra
19MLRMalkhed  08:21+3608:22+401m--181.948342mCRLalkhed, Maharashtra
20TMTTimtalaX  08:31+4008:32+431m--189.222350mCRAmravati, Maharashtra
21BDBadnera Junction (4)X  08:55+3709:00+405m1197.664335mCRBadnera (Amravati) 444701, Maharashtra
22TKITakliX  09:08+4909:09+491m--1106.166331mCRBadnera, Maharashtra
23KUMKuramX  09:16+5009:17+531m--1113.857308mCRAkola, Maharashtra
24MNDAMandura  09:23-09:24-1m--1119.577292mCRMurtizapur, Maharashtra
25MANAMana (2)X  09:30+5409:31+591m21127.261294mCRMANA dist Akola, Maharashtra
26MZRMurtizapur (3)X  09:43+5909:45+1:022m--1139.469303mCRMurtajapur, Maharashtra
27KTPKatepurna  09:54+1:1009:55+1:101m--1149.775292mCRNational Highway 6, Maharashtra
28BGNBorgaonX  10:02+1:1110:03+1:171m--1158.593294mCRAkola, Maharashtra
29YADYeulkhed  10:10+1:2110:11+1:221m--1169.348297mCRAkola, Maharashtra
30AKAkola Junction (7)  10:20+1:1710:25+1:165m11176.673284mCRAkola-444001, Maharashtra
31GAOGaigaon (2)  10:35+1:2510:36+1:271m--1188.858301mCRAkola, Maharashtra
32PSParas (2)X  10:44+1:2710:45+1:291m--1196.580281mCRAkola, Maharashtra
33NGZS K Nagjihari (2)  10:52+1:3110:53+1:321m--1205.943274mCRDist. Akola, Maharashtra
34SEGShegaon (2)O  11:04+1:3211:05+1:331m--1213.831276mCRShegaon 444203, Maharashtra
35JMJalamb Junction (3)  11:29+1:1711:30+1:181m--1226.182259mCRJalamb, Maharashtra
36NNNandura  11:39+1:1711:40+1:221m--1238.349267mCRNandura, Maharashtra
37KJLKhumgaon Burti  11:49+1:2311:50+1:231m--1245.842253mCRBuldhana, Maharashtra
38BISBiswa BridgeO  11:59+1:2212:00+1:221m--1252.141252mCRBuldhana, Maharashtra
39WADOWadodaXO  12:09+1:2212:10+1:221m--1258.225252mCRNH 6, Maharashtra
40MKUMalkapur (2)  12:29+1:1512:30+1:171m--1266.257252mCRMalkapur, Maharashtra
41KMKDKhamkhed  12:39+1:1912:40+1:191m--1274.944252mCRMalkapur, Maharashtra
42KLHDKolhadi  12:49+1:1912:50+1:191m--1281.429278mCRMalkapur, Maharashtra
43BDWDBodwadX  12:59+1:1913:00+1:201m--1285.851294mCRBodwad, Maharashtra
44ACGAchegaonX  13:14+1:1813:15+1:181m--1297.813234mCRVarangaon, Maharashtra
45VNAVarangaon  13:44+1:0713:45+1:081m--1303.811220mCRVarangaon, Maharashtra
46BSL•Bhusaval Junction (8)•  14:55+27---1316.1-208mCRBhusaval 425201, Maharashtra
Scroll to Top
Scroll to Bottom